Flight Track Log - Related Links

Times and Time Zones

All times are in EDT time to prevent confusion due to time zone crossing. See the OPT429 flight status page for this flight to view local times or setup timezone preferences in your user account.

Time Position Orientation Groundspeed Altitude Reporting Facility
EDT Latitude Longitude Course Direction KTS MPH feet Rate Location/Type
Tue 01:39:36 PM 30.8847 -83.8997 296° West 140 161 1,200  Level Jacksonville Center
Tue 01:40:42 PM 30.9031 -83.9433 271° West 184 212 4,600 2,824 Climbing Jacksonville Center
Tue 01:42:09 PM 30.9975 -83.9031 20° North 245 282 8,400 2,776 Climbing Jacksonville Center
Tue 01:43:09 PM 31.0686 -83.8869 11° North 245 282 11,400 2,900 Climbing Jacksonville Center
Tue 01:44:09 PM 31.1417 -83.8683 12° North 250 288 14,200 2,400 Climbing Jacksonville Center
Tue 01:45:09 PM 31.2214 -83.8497 11° North 270 311 16,200 1,900 Climbing Jacksonville Center
Tue 01:46:09 PM 31.3111 -83.8336 North 300 345 18,000 1,900 Climbing Jacksonville Center
Tue 01:47:09 PM 31.4053 -83.8150 10° North 322 371 20,000 1,950 Climbing Jacksonville Center
Tue 01:48:09 PM 31.4972 -83.8014 North 332 382 21,900 645 Climbing Jacksonville Center
Tue 01:50:15 PM 31.7256 -83.7947 North 371 427 22,000 32 Climbing Atlanta Center
Tue 01:51:15 PM 31.8508 -83.7969 359° North 406 467 22,000  Level Atlanta Center
Tue 01:52:15 PM 31.9717 -83.8014 358° North 426 490 22,000  Level Atlanta Center
Tue 01:53:15 PM 32.0969 -83.8036 359° North 432 497 22,000  Level Atlanta Center
Tue 01:54:15 PM 32.2161 -83.8156 355° North 437 503 22,000  Level Atlanta Center
Tue 01:55:15 PM 32.3308 -83.8544 344° North 436 502 22,000  Level Atlanta Center
Tue 01:56:15 PM 32.4125 -83.9478 316° Northwest 399 459 22,000  Level Atlanta Center
Tue 01:57:15 PM 32.4708 -84.0633 301° West 400 460 22,000  Level Atlanta Center
Tue 01:58:15 PM 32.5314 -84.1817 301° West 400 460 22,000  Level Atlanta Center
Tue 01:59:15 PM 32.5897 -84.3003 300° West 412 474 22,000  Level Atlanta Center
Tue 02:00:15 PM 32.6478 -84.4164 301° West 412 474 22,000  Level Atlanta Center
Tue 02:01:15 PM 32.7078 -84.5350 301° West 417 480 22,000  Level Atlanta Center
Tue 02:02:15 PM 32.7700 -84.6489 303° West 422 486 22,000  Level Atlanta Center
Tue 02:03:15 PM 32.8256 -84.7681 299° West 422 486 22,000  Level Atlanta Center
Tue 02:04:15 PM 32.8856 -84.8797 303° West 417 480 22,000  Level Atlanta Center
Tue 02:05:15 PM 32.9472 -84.9992 302° West 417 480 22,000  Level Atlanta Center
Tue 02:06:15 PM 33.0047 -85.1189 300° West 417 480 22,000  Level Atlanta Center
Tue 02:07:15 PM 33.0914 -85.2167 317° Northwest 417 480 22,000  Level Atlanta Center
Tue 02:08:15 PM 33.2036 -85.2678 339° North 417 480 22,000  Level Atlanta Center
Tue 02:09:15 PM 33.3181 -85.3092 343° North 418 481 22,000 -150 Level Atlanta Center
Tue 02:10:15 PM 33.4344 -85.3531 343° North 429 494 21,700 -1,550 Descending Atlanta Center
Tue 02:11:15 PM 33.5467 -85.3997 341° North 429 494 18,900 -2,650 Descending Atlanta Center
Tue 02:12:15 PM 33.6553 -85.4014 359° North 397 457 16,400 -2,650 Descending Atlanta Center
Tue 02:13:15 PM 33.7558 -85.3631 18° North 376 433 13,600 -2,800 Descending Atlanta Center
Tue 02:14:15 PM 33.8522 -85.3294 16° North 371 427 10,800 -2,350 Descending Atlanta Center
Tue 02:15:15 PM 33.9339 -85.3033 15° North 349 402 8,900 -2,100 Descending Atlanta Center
Tue 02:16:15 PM 34.0133 -85.2794 14° North 317 365 6,600 -2,200 Descending Atlanta Center
Tue 02:17:15 PM 34.0908 -85.2503 17° North 298 343 4,500 -1,400 Descending Atlanta Center
Tue 02:18:15 PM 34.1664 -85.2264 15° North 285 328 3,800 -350 Descending Atlanta Center
Tue 02:19:15 PM 34.2356 -85.1997 18° North 274 315 3,800  Level Atlanta Center

Login

Don't have an account? Register now (free) for customized features, flight alerts, and more!